sensor_id;sensor_type;location;lat;lon;timestamp;P1;durP1;ratioP1;P2;durP2;ratioP2
8488;SDS011;4281;45.772;12.852;2022-07-22T00:00:06;11.43;;;10.03;;
8488;SDS011;4281;45.772;12.852;2022-07-22T00:02:36;11.90;;;10.80;;
8488;SDS011;4281;45.772;12.852;2022-07-22T00:05:05;11.50;;;10.37;;
8488;SDS011;4281;45.772;12.852;2022-07-22T00:07:36;11.53;;;10.33;;
8488;SDS011;4281;45.772;12.852;2022-07-22T00:10:05;12.43;;;10.13;;
8488;SDS011;4281;45.772;12.852;2022-07-22T00:12:37;11.40;;;10.30;;
8488;SDS011;4281;45.772;12.852;2022-07-22T00:15:06;11.60;;;10.67;;
8488;SDS011;4281;45.772;12.852;2022-07-22T00:17:36;12.47;;;11.03;;
8488;SDS011;4281;45.772;12.852;2022-07-22T00:20:05;12.10;;;10.90;;
8488;SDS011;4281;45.772;12.852;2022-07-22T00:22:37;12.13;;;11.07;;
8488;SDS011;4281;45.772;12.852;2022-07-22T00:25:06;12.10;;;11.00;;
8488;SDS011;4281;45.772;12.852;2022-07-22T00:27:35;12.40;;;11.30;;
8488;SDS011;4281;45.772;12.852;2022-07-22T00:30:04;12.20;;;11.10;;
8488;SDS011;4281;45.772;12.852;2022-07-22T00:32:35;13.10;;;11.70;;
8488;SDS011;4281;45.772;12.852;2022-07-22T00:35:04;11.47;;;10.47;;
8488;SDS011;4281;45.772;12.852;2022-07-22T00:37:33;12.70;;;11.40;;
8488;SDS011;4281;45.772;12.852;2022-07-22T00:40:03;12.67;;;11.43;;
8488;SDS011;4281;45.772;12.852;2022-07-22T00:42:33;12.60;;;11.50;;
8488;SDS011;4281;45.772;12.852;2022-07-22T00:45:02;13.53;;;11.70;;
8488;SDS011;4281;45.772;12.852;2022-07-22T00:47:31;12.13;;;10.93;;
8488;SDS011;4281;45.772;12.852;2022-07-22T00:49:59;12.20;;;11.10;;
8488;SDS011;4281;45.772;12.852;2022-07-22T00:52:28;11.30;;;10.40;;
8488;SDS011;4281;45.772;12.852;2022-07-22T00:54:57;13.70;;;11.57;;
8488;SDS011;4281;45.772;12.852;2022-07-22T01:00:07;14.90;;;13.50;;
8488;SDS011;4281;45.772;12.852;2022-07-22T01:02:38;16.30;;;13.50;;
8488;SDS011;4281;45.772;12.852;2022-07-22T01:05:07;14.40;;;13.10;;
8488;SDS011;4281;45.772;12.852;2022-07-22T01:07:36;16.90;;;15.30;;
8488;SDS011;4281;45.772;12.852;2022-07-22T01:10:06;16.07;;;14.37;;
8488;SDS011;4281;45.772;12.852;2022-07-22T01:12:34;16.50;;;14.87;;
8488;SDS011;4281;45.772;12.852;2022-07-22T01:15:03;15.57;;;14.13;;
8488;SDS011;4281;45.772;12.852;2022-07-22T01:17:35;17.00;;;15.20;;
8488;SDS011;4281;45.772;12.852;2022-07-22T01:20:05;16.57;;;15.17;;
8488;SDS011;4281;45.772;12.852;2022-07-22T01:22:35;19.77;;;17.87;;
8488;SDS011;4281;45.772;12.852;2022-07-22T01:25:04;19.33;;;17.50;;
8488;SDS011;4281;45.772;12.852;2022-07-22T01:27:33;18.63;;;16.83;;
8488;SDS011;4281;45.772;12.852;2022-07-22T01:30:01;20.53;;;18.63;;
8488;SDS011;4281;45.772;12.852;2022-07-22T01:32:30;20.10;;;18.40;;
8488;SDS011;4281;45.772;12.852;2022-07-22T01:34:58;20.60;;;18.63;;
8488;SDS011;4281;45.772;12.852;2022-07-22T01:37:28;24.47;;;20.27;;
8488;SDS011;4281;45.772;12.852;2022-07-22T01:39:57;21.53;;;19.50;;
8488;SDS011;4281;45.772;12.852;2022-07-22T01:42:26;20.97;;;18.93;;
8488;SDS011;4281;45.772;12.852;2022-07-22T01:44:54;21.93;;;20.03;;
8488;SDS011;4281;45.772;12.852;2022-07-22T01:47:22;21.10;;;19.20;;
8488;SDS011;4281;45.772;12.852;2022-07-22T01:49:51;19.53;;;17.77;;
8488;SDS011;4281;45.772;12.852;2022-07-22T01:52:19;19.27;;;17.57;;
8488;SDS011;4281;45.772;12.852;2022-07-22T01:54:49;18.97;;;17.20;;
8488;SDS011;4281;45.772;12.852;2022-07-22T01:57:18;17.97;;;16.07;;
8488;SDS011;4281;45.772;12.852;2022-07-22T01:59:46;16.80;;;15.20;;
8488;SDS011;4281;45.772;12.852;2022-07-22T02:02:15;17.63;;;15.23;;
8488;SDS011;4281;45.772;12.852;2022-07-22T02:04:43;17.37;;;15.47;;
8488;SDS011;4281;45.772;12.852;2022-07-22T02:07:12;15.70;;;13.90;;
8488;SDS011;4281;45.772;12.852;2022-07-22T02:09:40;15.30;;;13.70;;
8488;SDS011;4281;45.772;12.852;2022-07-22T02:12:11;16.27;;;14.03;;
8488;SDS011;4281;45.772;12.852;2022-07-22T02:14:39;17.33;;;14.30;;
8488;SDS011;4281;45.772;12.852;2022-07-22T02:17:08;16.47;;;13.67;;
8488;SDS011;4281;45.772;12.852;2022-07-22T02:19:36;17.53;;;13.47;;
8488;SDS011;4281;45.772;12.852;2022-07-22T02:22:05;15.17;;;13.67;;
8488;SDS011;4281;45.772;12.852;2022-07-22T02:24:34;15.77;;;13.87;;
8488;SDS011;4281;45.772;12.852;2022-07-22T02:27:02;18.80;;;14.00;;
8488;SDS011;4281;45.772;12.852;2022-07-22T02:29:32;18.33;;;14.30;;
8488;SDS011;4281;45.772;12.852;2022-07-22T02:32:01;18.73;;;12.83;;
8488;SDS011;4281;45.772;12.852;2022-07-22T02:34:30;19.73;;;13.27;;
8488;SDS011;4281;45.772;12.852;2022-07-22T02:36:58;15.67;;;13.83;;
8488;SDS011;4281;45.772;12.852;2022-07-22T02:39:27;19.23;;;13.17;;
8488;SDS011;4281;45.772;12.852;2022-07-22T02:41:56;15.43;;;12.60;;
8488;SDS011;4281;45.772;12.852;2022-07-22T02:44:24;18.00;;;12.97;;
8488;SDS011;4281;45.772;12.852;2022-07-22T02:46:54;19.23;;;12.50;;
8488;SDS011;4281;45.772;12.852;2022-07-22T02:49:23;18.93;;;12.70;;
8488;SDS011;4281;45.772;12.852;2022-07-22T02:51:51;14.00;;;12.50;;
8488;SDS011;4281;45.772;12.852;2022-07-22T02:54:20;16.87;;;12.70;;
8488;SDS011;4281;45.772;12.852;2022-07-22T02:56:49;16.27;;;13.03;;
8488;SDS011;4281;45.772;12.852;2022-07-22T02:59:17;16.57;;;12.10;;
8488;SDS011;4281;45.772;12.852;2022-07-22T03:01:46;14.90;;;12.90;;
8488;SDS011;4281;45.772;12.852;2022-07-22T03:04:16;15.40;;;13.03;;
8488;SDS011;4281;45.772;12.852;2022-07-22T03:06:44;15.07;;;13.47;;
8488;SDS011;4281;45.772;12.852;2022-07-22T03:09:13;14.57;;;12.33;;
8488;SDS011;4281;45.772;12.852;2022-07-22T03:11:41;18.73;;;12.70;;
8488;SDS011;4281;45.772;12.852;2022-07-22T03:14:09;14.67;;;12.90;;
8488;SDS011;4281;45.772;12.852;2022-07-22T03:16:38;14.73;;;13.03;;
8488;SDS011;4281;45.772;12.852;2022-07-22T03:19:07;13.53;;;12.33;;
8488;SDS011;4281;45.772;12.852;2022-07-22T03:21:37;13.23;;;11.90;;
8488;SDS011;4281;45.772;12.852;2022-07-22T03:24:06;12.33;;;11.20;;
8488;SDS011;4281;45.772;12.852;2022-07-22T03:26:34;13.07;;;11.60;;
8488;SDS011;4281;45.772;12.852;2022-07-22T03:29:02;12.73;;;11.50;;
8488;SDS011;4281;45.772;12.852;2022-07-22T03:31:31;12.17;;;11.07;;
8488;SDS011;4281;45.772;12.852;2022-07-22T03:33:59;14.33;;;12.03;;
8488;SDS011;4281;45.772;12.852;2022-07-22T03:36:28;12.37;;;11.17;;
8488;SDS011;4281;45.772;12.852;2022-07-22T03:38:58;12.30;;;10.67;;
8488;SDS011;4281;45.772;12.852;2022-07-22T03:41:26;12.63;;;11.43;;
8488;SDS011;4281;45.772;12.852;2022-07-22T03:43:55;14.17;;;11.73;;
8488;SDS011;4281;45.772;12.852;2022-07-22T03:46:23;12.70;;;11.20;;
8488;SDS011;4281;45.772;12.852;2022-07-22T03:48:52;12.57;;;11.33;;
8488;SDS011;4281;45.772;12.852;2022-07-22T03:51:21;13.67;;;11.93;;
8488;SDS011;4281;45.772;12.852;2022-07-22T03:53:49;12.77;;;11.53;;
8488;SDS011;4281;45.772;12.852;2022-07-22T03:56:19;12.00;;;10.90;;
8488;SDS011;4281;45.772;12.852;2022-07-22T03:58:47;15.60;;;11.13;;
8488;SDS011;4281;45.772;12.852;2022-07-22T04:01:16;14.87;;;11.00;;
8488;SDS011;4281;45.772;12.852;2022-07-22T04:03:44;12.27;;;10.57;;
8488;SDS011;4281;45.772;12.852;2022-07-22T04:06:13;11.30;;;10.20;;
8488;SDS011;4281;45.772;12.852;2022-07-22T04:08:41;12.87;;;11.40;;
8488;SDS011;4281;45.772;12.852;2022-07-22T04:11:10;11.57;;;10.47;;
8488;SDS011;4281;45.772;12.852;2022-07-22T04:13:40;11.67;;;10.50;;
8488;SDS011;4281;45.772;12.852;2022-07-22T04:16:08;11.80;;;10.60;;
8488;SDS011;4281;45.772;12.852;2022-07-22T04:18:37;11.27;;;10.10;;
8488;SDS011;4281;45.772;12.852;2022-07-22T04:21:05;12.43;;;11.00;;
8488;SDS011;4281;45.772;12.852;2022-07-22T04:23:34;12.27;;;11.07;;
8488;SDS011;4281;45.772;12.852;2022-07-22T04:26:03;11.50;;;10.50;;
8488;SDS011;4281;45.772;12.852;2022-07-22T04:28:32;13.10;;;11.23;;
8488;SDS011;4281;45.772;12.852;2022-07-22T04:31:03;11.97;;;10.87;;
8488;SDS011;4281;45.772;12.852;2022-07-22T04:33:32;12.87;;;11.13;;
8488;SDS011;4281;45.772;12.852;2022-07-22T04:36:00;13.10;;;11.33;;
8488;SDS011;4281;45.772;12.852;2022-07-22T04:38:29;13.33;;;11.83;;
8488;SDS011;4281;45.772;12.852;2022-07-22T04:40:57;14.47;;;13.07;;
8488;SDS011;4281;45.772;12.852;2022-07-22T04:43:26;15.93;;;12.70;;
8488;SDS011;4281;45.772;12.852;2022-07-22T04:45:54;13.97;;;12.57;;
8488;SDS011;4281;45.772;12.852;2022-07-22T04:48:24;14.77;;;13.30;;
8488;SDS011;4281;45.772;12.852;2022-07-22T04:50:53;14.17;;;12.60;;
8488;SDS011;4281;45.772;12.852;2022-07-22T04:53:21;14.67;;;13.37;;
8488;SDS011;4281;45.772;12.852;2022-07-22T04:56:10;16.40;;;14.70;;
8488;SDS011;4281;45.772;12.852;2022-07-22T04:58:38;18.20;;;16.23;;
8488;SDS011;4281;45.772;12.852;2022-07-22T05:01:07;16.73;;;15.03;;
8488;SDS011;4281;45.772;12.852;2022-07-22T05:03:38;17.57;;;15.83;;
8488;SDS011;4281;45.772;12.852;2022-07-22T05:06:07;18.10;;;16.37;;
8488;SDS011;4281;45.772;12.852;2022-07-22T05:08:36;18.90;;;17.13;;
8488;SDS011;4281;45.772;12.852;2022-07-22T05:11:04;19.70;;;17.80;;
8488;SDS011;4281;45.772;12.852;2022-07-22T05:13:34;20.57;;;18.50;;
8488;SDS011;4281;45.772;12.852;2022-07-22T05:16:03;19.53;;;17.63;;
8488;SDS011;4281;45.772;12.852;2022-07-22T05:18:32;20.07;;;18.07;;
8488;SDS011;4281;45.772;12.852;2022-07-22T05:21:02;19.13;;;17.43;;
8488;SDS011;4281;45.772;12.852;2022-07-22T05:23:33;19.67;;;17.87;;
8488;SDS011;4281;45.772;12.852;2022-07-22T05:26:03;20.47;;;18.57;;
8488;SDS011;4281;45.772;12.852;2022-07-22T05:28:34;20.07;;;18.37;;
8488;SDS011;4281;45.772;12.852;2022-07-22T05:31:03;18.80;;;17.20;;
8488;SDS011;4281;45.772;12.852;2022-07-22T05:33:32;21.30;;;19.33;;
8488;SDS011;4281;45.772;12.852;2022-07-22T05:36:02;22.40;;;20.30;;
8488;SDS011;4281;45.772;12.852;2022-07-22T05:38:31;24.53;;;22.33;;
8488;SDS011;4281;45.772;12.852;2022-07-22T05:41:01;26.83;;;24.33;;
8488;SDS011;4281;45.772;12.852;2022-07-22T05:43:29;28.20;;;25.60;;
8488;SDS011;4281;45.772;12.852;2022-07-22T05:45:58;31.20;;;27.10;;
8488;SDS011;4281;45.772;12.852;2022-07-22T05:48:27;34.63;;;31.23;;
8488;SDS011;4281;45.772;12.852;2022-07-22T05:50:56;36.93;;;33.57;;
8488;SDS011;4281;45.772;12.852;2022-07-22T05:53:25;40.93;;;36.63;;
8488;SDS011;4281;45.772;12.852;2022-07-22T05:55:54;39.40;;;35.53;;
8488;SDS011;4281;45.772;12.852;2022-07-22T05:58:29;43.33;;;39.37;;
8488;SDS011;4281;45.772;12.852;2022-07-22T06:00:57;44.87;;;40.77;;
8488;SDS011;4281;45.772;12.852;2022-07-22T06:03:26;48.80;;;43.97;;
8488;SDS011;4281;45.772;12.852;2022-07-22T06:05:54;49.83;;;45.23;;
8488;SDS011;4281;45.772;12.852;2022-07-22T06:08:23;52.27;;;47.17;;
8488;SDS011;4281;45.772;12.852;2022-07-22T06:10:53;56.07;;;51.07;;
8488;SDS011;4281;45.772;12.852;2022-07-22T06:13:21;53.73;;;48.63;;
8488;SDS011;4281;45.772;12.852;2022-07-22T06:15:50;53.33;;;48.13;;
8488;SDS011;4281;45.772;12.852;2022-07-22T06:18:18;53.20;;;48.10;;
8488;SDS011;4281;45.772;12.852;2022-07-22T06:20:47;53.10;;;48.03;;
8488;SDS011;4281;45.772;12.852;2022-07-22T06:23:15;49.93;;;45.23;;
8488;SDS011;4281;45.772;12.852;2022-07-22T06:25:44;49.17;;;44.33;;
8488;SDS011;4281;45.772;12.852;2022-07-22T06:28:13;48.43;;;43.67;;
8488;SDS011;4281;45.772;12.852;2022-07-22T06:30:42;49.70;;;44.77;;
8488;SDS011;4281;45.772;12.852;2022-07-22T06:33:11;46.67;;;42.17;;
8488;SDS011;4281;45.772;12.852;2022-07-22T06:35:39;46.37;;;41.87;;
8488;SDS011;4281;45.772;12.852;2022-07-22T06:38:08;46.97;;;42.23;;
8488;SDS011;4281;45.772;12.852;2022-07-22T06:40:55;44.77;;;40.63;;
8488;SDS011;4281;45.772;12.852;2022-07-22T06:43:25;44.07;;;40.07;;
8488;SDS011;4281;45.772;12.852;2022-07-22T06:45:55;44.70;;;40.33;;
8488;SDS011;4281;45.772;12.852;2022-07-22T06:48:23;43.80;;;39.20;;
8488;SDS011;4281;45.772;12.852;2022-07-22T06:50:52;44.03;;;39.93;;
8488;SDS011;4281;45.772;12.852;2022-07-22T06:53:20;43.00;;;39.07;;
8488;SDS011;4281;45.772;12.852;2022-07-22T06:55:49;40.93;;;36.93;;
8488;SDS011;4281;45.772;12.852;2022-07-22T06:58:17;40.30;;;36.27;;
8488;SDS011;4281;45.772;12.852;2022-07-22T07:00:47;40.23;;;36.23;;
8488;SDS011;4281;45.772;12.852;2022-07-22T07:03:16;42.10;;;38.00;;
8488;SDS011;4281;45.772;12.852;2022-07-22T07:06:01;38.93;;;35.03;;
8488;SDS011;4281;45.772;12.852;2022-07-22T07:08:30;38.60;;;35.00;;
8488;SDS011;4281;45.772;12.852;2022-07-22T07:10:59;35.97;;;32.43;;
8488;SDS011;4281;45.772;12.852;2022-07-22T07:13:28;35.23;;;31.60;;
8488;SDS011;4281;45.772;12.852;2022-07-22T07:15:58;33.87;;;30.57;;
8488;SDS011;4281;45.772;12.852;2022-07-22T07:18:27;32.33;;;29.13;;
8488;SDS011;4281;45.772;12.852;2022-07-22T07:20:55;32.00;;;28.77;;
8488;SDS011;4281;45.772;12.852;2022-07-22T07:23:24;30.03;;;27.07;;
8488;SDS011;4281;45.772;12.852;2022-07-22T07:25:52;27.90;;;25.03;;
8488;SDS011;4281;45.772;12.852;2022-07-22T07:28:21;26.93;;;24.53;;
8488;SDS011;4281;45.772;12.852;2022-07-22T07:30:49;25.87;;;23.13;;
8488;SDS011;4281;45.772;12.852;2022-07-22T07:33:19;26.67;;;24.17;;
8488;SDS011;4281;45.772;12.852;2022-07-22T07:35:48;24.50;;;22.17;;
8488;SDS011;4281;45.772;12.852;2022-07-22T07:38:17;23.80;;;21.40;;
8488;SDS011;4281;45.772;12.852;2022-07-22T07:40:47;23.00;;;20.87;;
8488;SDS011;4281;45.772;12.852;2022-07-22T07:43:15;23.90;;;21.63;;
8488;SDS011;4281;45.772;12.852;2022-07-22T07:45:44;22.27;;;20.07;;
8488;SDS011;4281;45.772;12.852;2022-07-22T07:48:12;22.57;;;20.57;;
8488;SDS011;4281;45.772;12.852;2022-07-22T07:50:43;24.03;;;21.53;;
8488;SDS011;4281;45.772;12.852;2022-07-22T07:53:13;24.80;;;22.43;;
8488;SDS011;4281;45.772;12.852;2022-07-22T07:55:45;23.43;;;21.33;;
8488;SDS011;4281;45.772;12.852;2022-07-22T07:58:13;20.77;;;18.97;;
8488;SDS011;4281;45.772;12.852;2022-07-22T08:00:42;23.70;;;21.30;;
8488;SDS011;4281;45.772;12.852;2022-07-22T08:03:11;22.03;;;20.10;;
8488;SDS011;4281;45.772;12.852;2022-07-22T08:05:40;21.30;;;18.97;;
8488;SDS011;4281;45.772;12.852;2022-07-22T08:08:11;18.60;;;16.90;;
8488;SDS011;4281;45.772;12.852;2022-07-22T08:10:40;20.40;;;18.37;;
8488;SDS011;4281;45.772;12.852;2022-07-22T08:13:27;23.37;;;19.37;;
8488;SDS011;4281;45.772;12.852;2022-07-22T08:15:58;21.00;;;18.97;;
8488;SDS011;4281;45.772;12.852;2022-07-22T08:18:26;19.17;;;17.53;;
8488;SDS011;4281;45.772;12.852;2022-07-22T08:20:56;20.50;;;18.60;;
8488;SDS011;4281;45.772;12.852;2022-07-22T08:23:26;21.67;;;18.13;;
8488;SDS011;4281;45.772;12.852;2022-07-22T08:25:56;20.07;;;18.03;;
8488;SDS011;4281;45.772;12.852;2022-07-22T08:28:24;19.43;;;17.53;;
8488;SDS011;4281;45.772;12.852;2022-07-22T08:30:53;20.67;;;18.83;;
8488;SDS011;4281;45.772;12.852;2022-07-22T08:33:22;19.93;;;18.13;;
8488;SDS011;4281;45.772;12.852;2022-07-22T08:35:51;19.90;;;18.10;;
8488;SDS011;4281;45.772;12.852;2022-07-22T08:38:21;19.70;;;17.90;;
8488;SDS011;4281;45.772;12.852;2022-07-22T08:40:49;18.53;;;16.83;;
8488;SDS011;4281;45.772;12.852;2022-07-22T08:43:28;20.00;;;18.10;;
8488;SDS011;4281;45.772;12.852;2022-07-22T08:45:58;19.57;;;17.60;;
8488;SDS011;4281;45.772;12.852;2022-07-22T08:48:27;19.87;;;17.87;;
8488;SDS011;4281;45.772;12.852;2022-07-22T08:50:55;18.53;;;16.77;;
8488;SDS011;4281;45.772;12.852;2022-07-22T08:53:25;20.27;;;17.80;;
8488;SDS011;4281;45.772;12.852;2022-07-22T08:55:54;21.90;;;19.97;;
8488;SDS011;4281;45.772;12.852;2022-07-22T08:58:22;20.43;;;18.50;;
8488;SDS011;4281;45.772;12.852;2022-07-22T09:01:06;17.73;;;16.13;;
8488;SDS011;4281;45.772;12.852;2022-07-22T09:03:44;18.53;;;16.93;;
8488;SDS011;4281;45.772;12.852;2022-07-22T09:06:14;20.47;;;18.57;;
8488;SDS011;4281;45.772;12.852;2022-07-22T09:08:52;19.33;;;17.23;;
8488;SDS011;4281;45.772;12.852;2022-07-22T09:11:22;19.00;;;17.40;;
8488;SDS011;4281;45.772;12.852;2022-07-22T09:13:52;18.23;;;16.40;;
8488;SDS011;4281;45.772;12.852;2022-07-22T09:16:41;18.17;;;16.50;;
8488;SDS011;4281;45.772;12.852;2022-07-22T09:19:12;18.13;;;16.40;;
8488;SDS011;4281;45.772;12.852;2022-07-22T09:21:41;17.97;;;16.30;;
8488;SDS011;4281;45.772;12.852;2022-07-22T09:24:26;18.10;;;16.50;;
8488;SDS011;4281;45.772;12.852;2022-07-22T09:26:56;17.20;;;15.50;;
8488;SDS011;4281;45.772;12.852;2022-07-22T09:29:25;17.77;;;16.27;;
8488;SDS011;4281;45.772;12.852;2022-07-22T09:32:02;17.37;;;13.93;;
8488;SDS011;4281;45.772;12.852;2022-07-22T09:34:34;17.25;;;15.65;;
8488;SDS011;4281;45.772;12.852;2022-07-22T09:37:03;15.80;;;14.23;;
8488;SDS011;4281;45.772;12.852;2022-07-22T09:39:33;15.70;;;14.07;;
8488;SDS011;4281;45.772;12.852;2022-07-22T09:42:03;15.40;;;14.05;;
8488;SDS011;4281;45.772;12.852;2022-07-22T09:44:32;15.60;;;14.18;;
8488;SDS011;4281;45.772;12.852;2022-07-22T09:47:01;15.20;;;14.00;;
8488;SDS011;4281;45.772;12.852;2022-07-22T09:49:30;14.63;;;13.20;;
8488;SDS011;4281;45.772;12.852;2022-07-22T09:52:00;14.73;;;13.23;;
8488;SDS011;4281;45.772;12.852;2022-07-22T09:54:29;14.10;;;12.73;;
8488;SDS011;4281;45.772;12.852;2022-07-22T09:56:59;13.73;;;12.43;;
8488;SDS011;4281;45.772;12.852;2022-07-22T10:01:58;13.18;;;12.07;;
8488;SDS011;4281;45.772;12.852;2022-07-22T10:04:31;13.45;;;12.25;;
8488;SDS011;4281;45.772;12.852;2022-07-22T10:07:03;12.82;;;11.60;;
8488;SDS011;4281;45.772;12.852;2022-07-22T10:09:32;12.82;;;11.82;;
8488;SDS011;4281;45.772;12.852;2022-07-22T10:12:03;12.38;;;11.18;;
8488;SDS011;4281;45.772;12.852;2022-07-22T10:14:33;12.35;;;11.13;;
8488;SDS011;4281;45.772;12.852;2022-07-22T10:17:03;10.65;;;9.75;;
8488;SDS011;4281;45.772;12.852;2022-07-22T10:19:33;12.00;;;11.10;;
8488;SDS011;4281;45.772;12.852;2022-07-22T10:22:02;12.27;;;11.00;;
8488;SDS011;4281;45.772;12.852;2022-07-22T10:24:30;12.60;;;11.57;;
8488;SDS011;4281;45.772;12.852;2022-07-22T10:26:59;12.55;;;11.48;;
8488;SDS011;4281;45.772;12.852;2022-07-22T10:29:30;12.50;;;11.55;;
8488;SDS011;4281;45.772;12.852;2022-07-22T10:32:24;12.88;;;11.60;;
8488;SDS011;4281;45.772;12.852;2022-07-22T10:37:58;12.15;;;11.05;;
8488;SDS011;4281;45.772;12.852;2022-07-22T10:40:29;12.93;;;11.77;;
8488;SDS011;4281;45.772;12.852;2022-07-22T10:45:54;11.77;;;10.80;;
8488;SDS011;4281;45.772;12.852;2022-07-22T10:48:24;12.73;;;11.63;;
8488;SDS011;4281;45.772;12.852;2022-07-22T10:51:12;11.35;;;10.45;;
8488;SDS011;4281;45.772;12.852;2022-07-22T10:53:46;13.20;;;11.20;;
8488;SDS011;4281;45.772;12.852;2022-07-22T10:56:22;11.35;;;10.27;;
8488;SDS011;4281;45.772;12.852;2022-07-22T10:58:56;11.10;;;10.20;;
8488;SDS011;4281;45.772;12.852;2022-07-22T11:01:28;11.52;;;10.50;;
8488;SDS011;4281;45.772;12.852;2022-07-22T11:04:14;10.65;;;9.65;;
8488;SDS011;4281;45.772;12.852;2022-07-22T11:06:45;10.55;;;9.75;;
8488;SDS011;4281;45.772;12.852;2022-07-22T11:09:15;10.35;;;9.35;;
8488;SDS011;4281;45.772;12.852;2022-07-22T11:11:46;11.90;;;10.00;;
8488;SDS011;4281;45.772;12.852;2022-07-22T11:14:17;10.88;;;9.85;;
8488;SDS011;4281;45.772;12.852;2022-07-22T11:16:52;10.38;;;9.45;;
8488;SDS011;4281;45.772;12.852;2022-07-22T11:19:23;10.82;;;9.65;;
8488;SDS011;4281;45.772;12.852;2022-07-22T11:21:53;10.50;;;9.55;;
8488;SDS011;4281;45.772;12.852;2022-07-22T11:24:23;9.95;;;8.95;;
8488;SDS011;4281;45.772;12.852;2022-07-22T11:26:53;9.57;;;8.77;;
8488;SDS011;4281;45.772;12.852;2022-07-22T11:29:30;9.70;;;8.80;;
8488;SDS011;4281;45.772;12.852;2022-07-22T11:32:03;9.13;;;8.40;;
8488;SDS011;4281;45.772;12.852;2022-07-22T11:34:35;8.55;;;7.75;;
8488;SDS011;4281;45.772;12.852;2022-07-22T11:37:04;8.73;;;7.93;;
8488;SDS011;4281;45.772;12.852;2022-07-22T11:39:33;8.10;;;7.22;;
8488;SDS011;4281;45.772;12.852;2022-07-22T11:42:02;7.40;;;6.80;;
8488;SDS011;4281;45.772;12.852;2022-07-22T11:44:32;6.65;;;6.10;;
8488;SDS011;4281;45.772;12.852;2022-07-22T11:47:04;6.57;;;6.07;;
8488;SDS011;4281;45.772;12.852;2022-07-22T11:49:34;7.35;;;6.65;;
8488;SDS011;4281;45.772;12.852;2022-07-22T11:52:05;7.82;;;7.15;;
8488;SDS011;4281;45.772;12.852;2022-07-22T11:54:39;7.28;;;6.68;;
8488;SDS011;4281;45.772;12.852;2022-07-22T11:57:09;7.38;;;6.78;;
8488;SDS011;4281;45.772;12.852;2022-07-22T11:59:38;9.75;;;7.10;;
8488;SDS011;4281;45.772;12.852;2022-07-22T12:02:08;8.20;;;7.50;;
8488;SDS011;4281;45.772;12.852;2022-07-22T12:04:40;8.15;;;7.35;;
8488;SDS011;4281;45.772;12.852;2022-07-22T12:07:11;7.97;;;7.38;;
8488;SDS011;4281;45.772;12.852;2022-07-22T12:09:40;7.95;;;7.28;;
8488;SDS011;4281;45.772;12.852;2022-07-22T12:12:09;8.02;;;7.35;;
8488;SDS011;4281;45.772;12.852;2022-07-22T12:14:43;9.40;;;7.65;;
8488;SDS011;4281;45.772;12.852;2022-07-22T12:17:15;8.30;;;7.60;;
8488;SDS011;4281;45.772;12.852;2022-07-22T12:19:44;8.82;;;7.90;;
8488;SDS011;4281;45.772;12.852;2022-07-22T12:22:18;8.80;;;8.10;;
8488;SDS011;4281;45.772;12.852;2022-07-22T12:24:56;9.32;;;8.60;;
8488;SDS011;4281;45.772;12.852;2022-07-22T12:27:26;9.20;;;8.48;;
8488;SDS011;4281;45.772;12.852;2022-07-22T12:29:55;8.98;;;8.10;;
8488;SDS011;4281;45.772;12.852;2022-07-22T12:32:26;9.70;;;8.75;;
8488;SDS011;4281;45.772;12.852;2022-07-22T12:34:57;9.65;;;8.88;;
8488;SDS011;4281;45.772;12.852;2022-07-22T12:37:27;10.18;;;9.23;;
8488;SDS011;4281;45.772;12.852;2022-07-22T12:39:58;8.82;;;8.07;;
8488;SDS011;4281;45.772;12.852;2022-07-22T12:42:30;8.20;;;7.60;;
8488;SDS011;4281;45.772;12.852;2022-07-22T12:47:49;8.82;;;8.10;;
8488;SDS011;4281;45.772;12.852;2022-07-22T12:50:23;9.57;;;8.88;;
8488;SDS011;4281;45.772;12.852;2022-07-22T12:52:54;8.45;;;7.75;;
8488;SDS011;4281;45.772;12.852;2022-07-22T12:55:43;10.52;;;9.63;;
8488;SDS011;4281;45.772;12.852;2022-07-22T12:58:14;10.02;;;9.30;;
8488;SDS011;4281;45.772;12.852;2022-07-22T13:00:47;8.63;;;7.97;;
8488;SDS011;4281;45.772;12.852;2022-07-22T13:03:18;8.88;;;8.07;;
8488;SDS011;4281;45.772;12.852;2022-07-22T13:05:49;9.80;;;8.90;;
8488;SDS011;4281;45.772;12.852;2022-07-22T13:08:18;9.50;;;8.70;;
8488;SDS011;4281;45.772;12.852;2022-07-22T13:10:47;8.90;;;8.07;;
8488;SDS011;4281;45.772;12.852;2022-07-22T13:13:16;8.45;;;7.70;;
8488;SDS011;4281;45.772;12.852;2022-07-22T13:15:44;9.70;;;8.80;;
8488;SDS011;4281;45.772;12.852;2022-07-22T13:18:14;9.77;;;9.07;;
8488;SDS011;4281;45.772;12.852;2022-07-22T13:20:44;10.05;;;9.07;;
8488;SDS011;4281;45.772;12.852;2022-07-22T13:23:13;9.50;;;8.80;;
8488;SDS011;4281;45.772;12.852;2022-07-22T13:25:42;9.18;;;8.30;;
8488;SDS011;4281;45.772;12.852;2022-07-22T13:28:11;9.18;;;8.43;;
8488;SDS011;4281;45.772;12.852;2022-07-22T13:30:39;9.13;;;8.52;;
8488;SDS011;4281;45.772;12.852;2022-07-22T13:33:08;8.50;;;7.70;;
8488;SDS011;4281;45.772;12.852;2022-07-22T13:35:37;9.65;;;8.88;;
8488;SDS011;4281;45.772;12.852;2022-07-22T13:38:06;9.23;;;8.48;;
8488;SDS011;4281;45.772;12.852;2022-07-22T13:40:41;9.13;;;8.23;;
8488;SDS011;4281;45.772;12.852;2022-07-22T13:43:16;7.30;;;6.63;;
8488;SDS011;4281;45.772;12.852;2022-07-22T13:45:45;11.77;;;8.07;;
8488;SDS011;4281;45.772;12.852;2022-07-22T13:48:14;9.38;;;8.57;;
8488;SDS011;4281;45.772;12.852;2022-07-22T13:50:43;9.25;;;8.55;;
8488;SDS011;4281;45.772;12.852;2022-07-22T13:53:13;9.32;;;8.63;;
8488;SDS011;4281;45.772;12.852;2022-07-22T13:55:42;10.02;;;9.15;;
8488;SDS011;4281;45.772;12.852;2022-07-22T13:58:11;10.73;;;9.65;;
8488;SDS011;4281;45.772;12.852;2022-07-22T14:00:40;10.73;;;9.93;;
8488;SDS011;4281;45.772;12.852;2022-07-22T14:03:08;10.85;;;10.05;;
8488;SDS011;4281;45.772;12.852;2022-07-22T14:05:37;10.57;;;9.70;;
8488;SDS011;4281;45.772;12.852;2022-07-22T14:08:05;11.13;;;10.02;;
8488;SDS011;4281;45.772;12.852;2022-07-22T14:10:35;11.98;;;10.75;;
8488;SDS011;4281;45.772;12.852;2022-07-22T14:13:04;11.40;;;10.50;;
8488;SDS011;4281;45.772;12.852;2022-07-22T14:15:33;11.48;;;10.38;;
8488;SDS011;4281;45.772;12.852;2022-07-22T14:18:01;12.20;;;11.05;;
8488;SDS011;4281;45.772;12.852;2022-07-22T14:20:33;13.50;;;12.40;;
8488;SDS011;4281;45.772;12.852;2022-07-22T14:23:02;17.55;;;15.95;;
8488;SDS011;4281;45.772;12.852;2022-07-22T14:25:32;18.40;;;16.75;;
8488;SDS011;4281;45.772;12.852;2022-07-22T14:28:02;18.33;;;16.55;;
8488;SDS011;4281;45.772;12.852;2022-07-22T14:30:51;17.38;;;15.90;;
8488;SDS011;4281;45.772;12.852;2022-07-22T14:33:20;16.80;;;15.20;;
8488;SDS011;4281;45.772;12.852;2022-07-22T14:35:48;15.85;;;14.45;;
8488;SDS011;4281;45.772;12.852;2022-07-22T14:38:17;14.75;;;13.55;;
8488;SDS011;4281;45.772;12.852;2022-07-22T14:40:46;13.60;;;12.48;;
8488;SDS011;4281;45.772;12.852;2022-07-22T14:43:15;13.70;;;12.55;;
8488;SDS011;4281;45.772;12.852;2022-07-22T14:46:04;13.10;;;11.90;;
8488;SDS011;4281;45.772;12.852;2022-07-22T14:48:36;13.38;;;12.18;;
8488;SDS011;4281;45.772;12.852;2022-07-22T14:51:05;13.27;;;12.25;;
8488;SDS011;4281;45.772;12.852;2022-07-22T14:53:35;13.18;;;11.82;;
8488;SDS011;4281;45.772;12.852;2022-07-22T14:56:03;12.50;;;11.60;;
8488;SDS011;4281;45.772;12.852;2022-07-22T14:58:33;11.93;;;10.88;;
8488;SDS011;4281;45.772;12.852;2022-07-22T15:01:02;12.38;;;11.15;;
8488;SDS011;4281;45.772;12.852;2022-07-22T15:03:31;11.77;;;10.77;;
8488;SDS011;4281;45.772;12.852;2022-07-22T15:05:59;11.98;;;10.98;;
8488;SDS011;4281;45.772;12.852;2022-07-22T15:08:28;11.48;;;10.68;;